Saturday, November 29, 2014
05:08 UTC
  |  Log In   |  Register Free
Airport Search:

Norwood Memorial Airport
(KOWD)

FAA data valid effective November 13, 2014 - January 08, 2015 (unless otherwise noted).

 
 
 
 
 
 
 
 
 
 
 
 
 
 

Current Aviation Weather for Norwood Memorial Airport (KOWD)

The most recent METAR observation for KOWD was updated at: 0336
METAR Summary (Translated METAR)
KOWD
290253Z AUTO 28005KT 10SM CLR M03/M08 A3019 RMK AO2 SLP224 T10331083 51008
KBOS
290254Z 28008KT 10SM FEW050 M02/M07 A3019 RMK AO2 SLP224 T10221072 51009
(12.7 nm NE from KOWD)
KBED
290256Z 33003KT 10SM CLR M07/M08 A3018 RMK AO2 SLP236 T10671083 51008
(17.6 nm NW from KOWD)
TAF Summary (Translated TAF)
KBOS
(12.7 nm NE from KOWD)
282117Z 2821/2924 31013KT P6SM BKN050 FM282300 30011KT P6SM SCT250 FM291700 24005KT P6SM BKN250
KBED
(17.6 nm NW from KOWD)
281732Z 2818/2918 31009G18KT P6SM BKN090 FM282100 30007KT P6SM SCT250 FM290400 VRB03KT P6SM FEW250
  Airport Weather Conditions for KOWD

 Current Weather at OWD
25° F
Fair
West winds at 5.8 mph
OWD NOAA Radar

Pressure: 30.21 in
Humidity: 72%
Wind: West at 5.8 MPH (5 KT)
Dew Point: 17.1°F
Visibility: 10.00 mi


Airport Weather Forecast for KOWD

Translated METAR and TAF for KOWD
Translated METAR for KOWD (0503 UTC 29 November 2014)
found at http://aviationweather.gov/adds/metars/
 
METAR text: KOWD 290453Z AUTO 25003KT 10SM CLR M04/M08 A3022 RMK AO2 SLP234 T10441083 400221044
Conditions at: KOWD (NORWOOD , MA, US) observed 0453 UTC 29 November 2014
Temperature: -4.4°C (24°F)
Dewpoint: -8.3°C (17°F) [RH = 74%]
Pressure (altimeter): 30.22 inches Hg (1023.5 mb)
[Sea-level pressure: 1023.4 mb]
Winds: from the WSW (250 degrees) at 3 MPH (3 knots; 1.6 m/s)
Visibility: 10 or more miles (16+ km)
Ceiling: at least 12,000 feet AGL
Clouds: sky clear below 12,000 feet AGL
Weather: automated observation with no human augmentation;
there may or may not be significant weather present at this time
Translated TAF for KOWD

There is no translated TAF available for this airport

Find All Airport Services Find A Hotel Find A Rental Car Find A Golf Course Find A Restaurant $100 Hamburger



FBO's on the Field
FBO Company Facility Photos Services Transportation Aviation Fuel Prices: Prices include tax
Catering Weather Repair Courtesy Rental Type 100LL JetA JetA+ MOGAS 8087
 
FlightLevel Aviation

Currently rated 2.7 by 2 people
FS:Shell
Last Updated: Nov-20
Login to update fuel prices
SS:
Contact FlightLevel AviationMore FBO Information
 
Add another FBO Facility Photos Catering Weather Repair Courtesy Rental Type 100LL JetA JetA+ MOGAS 8087
Services Transportation Aviation Fuel Prices: Prices include tax


model-print
model-print
model-print
model-print